createdAt,value
2022-12-31T00:02:03.495Z,11.30
2022-12-31T00:07:06.129Z,11.10
2022-12-31T00:12:08.692Z,10.85
2022-12-31T00:17:11.251Z,11.43
2022-12-31T00:22:13.826Z,11.60
2022-12-31T00:27:16.861Z,11.88
2022-12-31T00:32:19.449Z,10.60
2022-12-31T00:37:22.008Z,11.23
2022-12-31T00:42:24.738Z,12.15
2022-12-31T00:47:27.399Z,10.95
2022-12-31T00:52:29.995Z,10.75
2022-12-31T00:57:32.545Z,10.73
2022-12-31T01:02:35.310Z,11.02
2022-12-31T01:07:38.830Z,10.15
2022-12-31T01:12:41.565Z,9.85
2022-12-31T01:17:44.357Z,10.02
2022-12-31T01:22:46.948Z,11.18
2022-12-31T01:27:49.623Z,10.82
2022-12-31T01:32:52.246Z,10.93
2022-12-31T01:37:54.860Z,10.70
2022-12-31T01:42:58.510Z,10.55
2022-12-31T01:48:01.987Z,10.18
2022-12-31T01:53:07.117Z,10.55
2022-12-31T01:58:14.474Z,10.38
2022-12-31T02:03:17.315Z,10.20
2022-12-31T02:08:21.308Z,9.77
2022-12-31T02:13:24.205Z,10.73
2022-12-31T02:18:35.806Z,9.88
2022-12-31T02:23:55.872Z,9.73
2022-12-31T02:29:27.816Z,8.85
2022-12-31T02:34:38.038Z,9.65
2022-12-31T02:39:42.955Z,9.38
2022-12-31T02:44:45.534Z,8.63
2022-12-31T02:50:16.604Z,8.30
2022-12-31T02:55:52.525Z,8.75
2022-12-31T03:01:16.663Z,7.70
2022-12-31T03:06:19.457Z,8.70
2022-12-31T03:11:40.517Z,7.60
2022-12-31T03:16:43.038Z,6.87
2022-12-31T03:22:04.062Z,6.90
2022-12-31T03:27:06.701Z,6.97
2022-12-31T03:32:09.197Z,6.43
2022-12-31T03:37:11.788Z,6.82
2022-12-31T03:42:14.382Z,6.45
2022-12-31T03:47:17.003Z,6.80
2022-12-31T03:52:19.766Z,7.30
2022-12-31T03:57:23.799Z,6.65
2022-12-31T04:02:28.835Z,6.80
2022-12-31T04:07:32.202Z,7.05
2022-12-31T04:12:35.124Z,7.38
2022-12-31T04:17:37.704Z,8.00
2022-12-31T04:22:40.392Z,7.40
2022-12-31T04:27:45.910Z,8.02
2022-12-31T04:32:48.419Z,7.53
2022-12-31T04:37:51.043Z,9.13
2022-12-31T04:42:53.574Z,7.50
2022-12-31T04:47:56.177Z,8.65
2022-12-31T04:52:58.677Z,7.78
2022-12-31T04:58:01.892Z,8.38
2022-12-31T05:03:04.523Z,8.32
2022-12-31T05:08:07.136Z,7.70
2022-12-31T05:13:09.849Z,8.05
2022-12-31T05:18:12.519Z,7.78
2022-12-31T05:23:16.725Z,7.75
2022-12-31T05:28:19.910Z,6.95
2022-12-31T05:33:23.167Z,7.13
2022-12-31T05:38:26.273Z,6.43
2022-12-31T05:43:29.041Z,6.70
2022-12-31T05:48:32.079Z,6.82
2022-12-31T05:53:34.739Z,6.28
2022-12-31T05:58:38.088Z,7.22
2022-12-31T06:03:42.193Z,6.80
2022-12-31T06:08:44.911Z,6.90
2022-12-31T06:13:47.435Z,7.22
2022-12-31T06:18:51.011Z,7.38
2022-12-31T06:23:53.574Z,6.25
2022-12-31T06:28:56.168Z,7.18
2022-12-31T06:33:59.184Z,7.15
2022-12-31T06:39:02.044Z,6.80
2022-12-31T06:44:04.764Z,6.72
2022-12-31T06:49:07.391Z,7.70
2022-12-31T06:54:10.022Z,7.00
2022-12-31T06:59:26.754Z,7.05
2022-12-31T07:04:56.274Z,6.90
2022-12-31T07:10:17.614Z,7.20
2022-12-31T07:15:43.704Z,6.53
2022-12-31T07:20:46.778Z,7.57
2022-12-31T07:26:05.054Z,7.70
2022-12-31T07:31:25.265Z,7.95
2022-12-31T07:36:33.499Z,7.72
2022-12-31T07:42:00.101Z,7.85
2022-12-31T07:47:05.587Z,7.43
2022-12-31T07:52:08.549Z,7.97
2022-12-31T07:57:15.988Z,7.45
2022-12-31T08:02:25.383Z,7.88
2022-12-31T08:07:52.111Z,8.57
2022-12-31T08:13:01.218Z,7.93
2022-12-31T08:18:04.153Z,7.20
2022-12-31T08:23:22.081Z,6.85
2022-12-31T08:28:38.105Z,7.15
2022-12-31T08:34:07.525Z,8.32
2022-12-31T08:39:16.099Z,7.35
2022-12-31T08:44:44.502Z,8.23
2022-12-31T08:49:47.278Z,7.78
2022-12-31T08:54:50.473Z,6.35
2022-12-31T09:00:13.961Z,6.53
2022-12-31T09:05:23.583Z,5.85
2022-12-31T09:10:35.097Z,6.30
2022-12-31T09:16:02.036Z,5.80
2022-12-31T09:21:04.892Z,6.20
2022-12-31T09:26:36.733Z,4.95
2022-12-31T09:32:05.278Z,6.50
2022-12-31T09:37:41.331Z,5.30
2022-12-31T09:43:18.187Z,4.72
2022-12-31T09:48:54.768Z,5.63
2022-12-31T09:54:17.447Z,6.05
2022-12-31T09:59:35.314Z,5.97
2022-12-31T10:05:20.492Z,5.82
2022-12-31T10:10:30.141Z,5.55
2022-12-31T10:15:53.934Z,5.70
2022-12-31T10:21:26.520Z,6.07
2022-12-31T10:26:58.649Z,5.85
2022-12-31T10:37:15.723Z,6.22
2022-12-31T10:42:36.702Z,6.28
2022-12-31T10:48:07.339Z,7.93
2022-12-31T10:53:25.071Z,7.10
2022-12-31T10:58:42.845Z,8.60
2022-12-31T11:04:07.359Z,4.55
2022-12-31T11:09:23.492Z,4.65
2022-12-31T11:14:41.331Z,4.90
2022-12-31T11:20:14.781Z,4.88
2022-12-31T11:25:33.563Z,4.43
2022-12-31T11:30:38.888Z,4.82
2022-12-31T11:35:50.629Z,5.28
2022-12-31T11:41:11.411Z,4.57
2022-12-31T11:46:25.010Z,4.20
2022-12-31T11:51:40.682Z,4.85
2022-12-31T11:56:53.874Z,3.92
2022-12-31T12:02:04.552Z,3.60
2022-12-31T12:07:14.700Z,3.80
2022-12-31T12:12:17.352Z,3.97
2022-12-31T12:17:32.542Z,3.78
2022-12-31T12:22:35.260Z,3.78
2022-12-31T12:27:37.956Z,3.47
2022-12-31T12:32:59.318Z,3.22
2022-12-31T12:38:08.429Z,4.80
2022-12-31T12:43:33.741Z,3.45
2022-12-31T12:48:42.092Z,3.70
2022-12-31T12:53:57.562Z,3.33
2022-12-31T12:59:09.229Z,3.95
2022-12-31T13:04:34.995Z,3.95
2022-12-31T13:09:55.575Z,3.13
2022-12-31T13:14:58.061Z,3.70
2022-12-31T13:20:21.583Z,4.00
2022-12-31T13:26:14.533Z,4.60
2022-12-31T13:31:30.341Z,4.43
2022-12-31T13:36:39.720Z,4.60
2022-12-31T13:41:49.733Z,4.13
2022-12-31T13:52:14.650Z,21.70
2022-12-31T13:57:30.689Z,5.57
2022-12-31T14:02:55.849Z,4.88
2022-12-31T14:08:01.821Z,7.00
2022-12-31T14:13:21.522Z,4.72
2022-12-31T14:18:33.480Z,5.03
2022-12-31T14:29:06.071Z,4.90
2022-12-31T14:34:37.134Z,3.83
2022-12-31T14:40:10.560Z,4.72
2022-12-31T14:45:35.764Z,5.03
2022-12-31T14:50:38.825Z,3.85
2022-12-31T14:55:41.658Z,4.50
2022-12-31T15:00:56.962Z,4.65
2022-12-31T15:06:22.654Z,5.10
2022-12-31T15:11:43.434Z,7.95
2022-12-31T15:17:04.069Z,7.70
2022-12-31T15:22:18.006Z,7.18
2022-12-31T15:27:42.356Z,6.70
2022-12-31T15:32:47.322Z,6.97
2022-12-31T15:38:03.247Z,7.82
2022-12-31T15:43:15.063Z,7.28
2022-12-31T15:48:27.439Z,7.13
2022-12-31T15:53:36.233Z,6.43
2022-12-31T15:58:38.925Z,5.53
2022-12-31T16:03:51.102Z,5.15
2022-12-31T16:08:55.616Z,3.80
2022-12-31T16:14:00.189Z,3.20
2022-12-31T16:19:02.767Z,3.20
2022-12-31T16:24:23.563Z,3.05
2022-12-31T16:29:26.315Z,3.03
2022-12-31T16:34:32.316Z,2.92
2022-12-31T16:39:48.713Z,3.15
2022-12-31T16:44:53.909Z,2.45
2022-12-31T16:50:04.144Z,4.25
2022-12-31T16:55:30.695Z,5.18
2022-12-31T17:00:33.915Z,5.68
2022-12-31T17:06:14.060Z,3.20
2022-12-31T17:11:31.064Z,4.28
2022-12-31T17:16:36.057Z,5.28
2022-12-31T17:21:48.627Z,4.88
2022-12-31T17:26:52.694Z,5.00
2022-12-31T17:32:07.282Z,5.13
2022-12-31T17:37:15.917Z,4.60
2022-12-31T17:42:28.736Z,4.38
2022-12-31T17:47:40.523Z,5.10
2022-12-31T17:52:43.175Z,4.30
2022-12-31T17:57:54.241Z,3.88
2022-12-31T18:02:56.923Z,4.07
2022-12-31T18:07:59.560Z,4.85
2022-12-31T18:13:05.082Z,4.50
2022-12-31T18:18:35.892Z,4.88
2022-12-31T18:23:43.259Z,5.03
2022-12-31T18:28:46.755Z,4.97
2022-12-31T18:33:51.392Z,4.85
2022-12-31T18:38:54.285Z,5.20
2022-12-31T18:43:56.912Z,5.20
2022-12-31T18:48:59.581Z,5.60
2022-12-31T18:54:03.743Z,6.63
2022-12-31T18:59:07.809Z,6.07
2022-12-31T19:04:26.517Z,5.63
2022-12-31T19:09:50.085Z,5.80
2022-12-31T19:14:55.780Z,5.90
2022-12-31T19:20:03.275Z,6.07
2022-12-31T19:25:33.746Z,5.93
2022-12-31T19:30:36.794Z,6.22
2022-12-31T19:35:40.099Z,6.90
2022-12-31T19:40:42.699Z,6.88
2022-12-31T19:45:45.751Z,8.45
2022-12-31T19:50:50.698Z,7.72
2022-12-31T19:55:53.797Z,7.53
2022-12-31T20:01:02.430Z,6.75
2022-12-31T20:06:08.875Z,7.10
2022-12-31T20:11:14.831Z,7.18
2022-12-31T20:16:19.603Z,8.40
2022-12-31T20:21:25.400Z,6.80
2022-12-31T20:26:28.177Z,6.32
2022-12-31T20:31:30.757Z,6.10
2022-12-31T20:36:33.302Z,5.70
2022-12-31T20:41:35.826Z,5.68
2022-12-31T20:46:38.509Z,6.55
2022-12-31T20:51:41.034Z,7.05
2022-12-31T20:56:47.748Z,6.03
2022-12-31T21:02:19.940Z,6.68
2022-12-31T21:07:12.832Z,7.13
2022-12-31T21:12:33.894Z,7.38
2022-12-31T21:17:36.542Z,6.77
2022-12-31T21:22:39.244Z,13.23
2022-12-31T21:27:41.828Z,17.20
2022-12-31T21:32:44.375Z,10.52
2022-12-31T21:37:58.088Z,11.35
2022-12-31T21:43:02.878Z,10.10
2022-12-31T21:48:22.022Z,14.00
2022-12-31T21:53:30.425Z,13.88
2022-12-31T22:03:43.692Z,16.00
2022-12-31T22:08:48.575Z,16.23
2022-12-31T22:13:52.174Z,19.73
2022-12-31T22:18:55.787Z,21.67
2022-12-31T22:24:03.163Z,18.58
2022-12-31T22:29:05.736Z,18.52
2022-12-31T22:34:08.356Z,16.30
2022-12-31T22:39:43.265Z,17.63
2022-12-31T22:44:38.397Z,17.13
2022-12-31T22:49:40.919Z,16.05
2022-12-31T22:54:43.650Z,15.95
2022-12-31T22:59:46.224Z,17.05
2022-12-31T23:04:49.970Z,15.75
2022-12-31T23:10:11.342Z,14.77
2022-12-31T23:15:33.714Z,14.82
2022-12-31T23:20:55.170Z,14.23
2022-12-31T23:26:01.376Z,14.57
2022-12-31T23:31:06.520Z,12.85
2022-12-31T23:36:09.527Z,14.27
2022-12-31T23:41:18.305Z,11.57
2022-12-31T23:46:20.968Z,12.63
2022-12-31T23:51:24.429Z,12.23
2022-12-31T23:56:27.063Z,11.05
